Terminal Aerodrome Forecast
Issued by NWS Burlington, VT

Home | Current Version | Previous Version | Text Only | Print | Product List | Glossary On
Versions: 1 2 3 4 5 6 7 8 9 10 11 12 13 14 15 16 17 18 19
000
FTUS41 KBTV 211700
TAFBTV
TAF
KBTV 211725Z 2118/2218 VRB03KT 6SM -SHRA BR OVC035
      TEMPO 2118/2121 5SM -SHRA BR OVC025
     FM212100 36006KT P6SM VCSH OVC025=

USA.gov is the U.S. government's official web portal to all federal, state and local government web resources and services.